sensor_id;sensor_type;location;lat;lon;timestamp;temperature;humidity
27376;DHT22;14844;51.302;6.354;2022-08-19T00:00:36;17.40;99.90
27376;DHT22;14844;51.302;6.354;2022-08-19T00:03:02;17.50;99.90
27376;DHT22;14844;51.302;6.354;2022-08-19T00:05:28;17.50;99.90
27376;DHT22;14844;51.302;6.354;2022-08-19T00:07:53;17.50;99.90
27376;DHT22;14844;51.302;6.354;2022-08-19T00:10:20;17.40;99.90
27376;DHT22;14844;51.302;6.354;2022-08-19T00:12:46;17.30;99.90
27376;DHT22;14844;51.302;6.354;2022-08-19T00:15:13;17.20;99.90
27376;DHT22;14844;51.302;6.354;2022-08-19T00:17:42;17.20;99.90
27376;DHT22;14844;51.302;6.354;2022-08-19T00:20:09;17.10;99.90
27376;DHT22;14844;51.302;6.354;2022-08-19T00:22:37;17.00;99.90
27376;DHT22;14844;51.302;6.354;2022-08-19T00:25:05;16.90;99.90
27376;DHT22;14844;51.302;6.354;2022-08-19T00:27:30;16.80;99.90
27376;DHT22;14844;51.302;6.354;2022-08-19T00:29:56;16.70;99.90
27376;DHT22;14844;51.302;6.354;2022-08-19T00:32:22;16.60;99.90
27376;DHT22;14844;51.302;6.354;2022-08-19T00:34:47;16.60;99.90
27376;DHT22;14844;51.302;6.354;2022-08-19T00:37:13;16.50;99.90
27376;DHT22;14844;51.302;6.354;2022-08-19T00:39:38;16.50;99.90
27376;DHT22;14844;51.302;6.354;2022-08-19T00:42:04;16.50;99.90
27376;DHT22;14844;51.302;6.354;2022-08-19T00:44:32;16.60;99.90
27376;DHT22;14844;51.302;6.354;2022-08-19T00:46:58;16.80;99.90
27376;DHT22;14844;51.302;6.354;2022-08-19T00:49:50;16.90;99.90
27376;DHT22;14844;51.302;6.354;2022-08-19T00:52:35;16.80;99.90
27376;DHT22;14844;51.302;6.354;2022-08-19T00:55:04;16.70;99.90
27376;DHT22;14844;51.302;6.354;2022-08-19T00:57:35;16.60;99.90
27376;DHT22;14844;51.302;6.354;2022-08-19T01:00:08;16.60;99.90
27376;DHT22;14844;51.302;6.354;2022-08-19T01:02:36;16.50;99.90
27376;DHT22;14844;51.302;6.354;2022-08-19T01:05:04;16.50;99.90
27376;DHT22;14844;51.302;6.354;2022-08-19T01:07:32;16.60;99.90
27376;DHT22;14844;51.302;6.354;2022-08-19T01:09:57;16.60;99.90
27376;DHT22;14844;51.302;6.354;2022-08-19T01:12:23;16.50;99.90
27376;DHT22;14844;51.302;6.354;2022-08-19T01:14:50;16.50;99.90
27376;DHT22;14844;51.302;6.354;2022-08-19T01:17:17;16.40;99.90
27376;DHT22;14844;51.302;6.354;2022-08-19T01:19:45;16.30;99.90
27376;DHT22;14844;51.302;6.354;2022-08-19T01:24:49;16.10;99.90
27376;DHT22;14844;51.302;6.354;2022-08-19T01:27:15;16.10;99.90
27376;DHT22;14844;51.302;6.354;2022-08-19T01:29:43;16.10;99.90
27376;DHT22;14844;51.302;6.354;2022-08-19T01:32:13;16.00;99.90
27376;DHT22;14844;51.302;6.354;2022-08-19T01:34:40;16.00;99.90
27376;DHT22;14844;51.302;6.354;2022-08-19T01:37:08;15.90;99.90
27376;DHT22;14844;51.302;6.354;2022-08-19T01:39:36;15.90;99.90
27376;DHT22;14844;51.302;6.354;2022-08-19T01:42:02;15.90;99.90
27376;DHT22;14844;51.302;6.354;2022-08-19T01:44:28;15.80;99.90
27376;DHT22;14844;51.302;6.354;2022-08-19T01:46:54;15.90;99.90
27376;DHT22;14844;51.302;6.354;2022-08-19T01:49:23;16.20;99.90
27376;DHT22;14844;51.302;6.354;2022-08-19T01:51:50;16.30;99.90
27376;DHT22;14844;51.302;6.354;2022-08-19T01:54:17;16.30;99.90
27376;DHT22;14844;51.302;6.354;2022-08-19T01:56:43;16.20;99.90
27376;DHT22;14844;51.302;6.354;2022-08-19T01:59:13;16.10;99.90
27376;DHT22;14844;51.302;6.354;2022-08-19T02:01:40;16.10;99.90
27376;DHT22;14844;51.302;6.354;2022-08-19T02:04:06;16.20;99.90
27376;DHT22;14844;51.302;6.354;2022-08-19T02:06:32;16.50;99.90
27376;DHT22;14844;51.302;6.354;2022-08-19T02:08:58;16.60;99.90
27376;DHT22;14844;51.302;6.354;2022-08-19T02:11:28;16.70;99.90
27376;DHT22;14844;51.302;6.354;2022-08-19T02:13:55;16.70;99.90
27376;DHT22;14844;51.302;6.354;2022-08-19T02:16:21;16.80;99.90
27376;DHT22;14844;51.302;6.354;2022-08-19T02:18:47;16.80;99.90
27376;DHT22;14844;51.302;6.354;2022-08-19T02:21:20;16.80;99.90
27376;DHT22;14844;51.302;6.354;2022-08-19T02:23:46;16.80;99.90
27376;DHT22;14844;51.302;6.354;2022-08-19T02:26:12;16.80;99.90
27376;DHT22;14844;51.302;6.354;2022-08-19T02:28:38;16.90;99.90
27376;DHT22;14844;51.302;6.354;2022-08-19T02:31:08;16.90;99.90
27376;DHT22;14844;51.302;6.354;2022-08-19T02:33:34;16.90;99.90
27376;DHT22;14844;51.302;6.354;2022-08-19T02:35:59;16.90;99.90
27376;DHT22;14844;51.302;6.354;2022-08-19T02:38:28;16.90;99.90
27376;DHT22;14844;51.302;6.354;2022-08-19T02:41:07;16.90;99.90
27376;DHT22;14844;51.302;6.354;2022-08-19T02:43:35;16.90;99.90
27376;DHT22;14844;51.302;6.354;2022-08-19T02:46:14;16.80;99.90
27376;DHT22;14844;51.302;6.354;2022-08-19T02:48:40;16.80;99.90
27376;DHT22;14844;51.302;6.354;2022-08-19T02:51:06;16.70;99.90
27376;DHT22;14844;51.302;6.354;2022-08-19T02:53:33;16.70;99.90
27376;DHT22;14844;51.302;6.354;2022-08-19T02:55:58;16.60;99.90
27376;DHT22;14844;51.302;6.354;2022-08-19T02:58:24;16.60;99.90
27376;DHT22;14844;51.302;6.354;2022-08-19T03:00:52;16.60;99.90
27376;DHT22;14844;51.302;6.354;2022-08-19T03:03:19;16.50;99.90
27376;DHT22;14844;51.302;6.354;2022-08-19T03:05:45;16.50;99.90
27376;DHT22;14844;51.302;6.354;2022-08-19T03:08:11;16.40;99.90
27376;DHT22;14844;51.302;6.354;2022-08-19T03:10:46;16.50;99.90
27376;DHT22;14844;51.302;6.354;2022-08-19T03:13:14;16.50;99.90
27376;DHT22;14844;51.302;6.354;2022-08-19T03:15:42;16.50;99.90
27376;DHT22;14844;51.302;6.354;2022-08-19T03:18:08;16.40;99.90
27376;DHT22;14844;51.302;6.354;2022-08-19T03:20:43;16.30;99.90
27376;DHT22;14844;51.302;6.354;2022-08-19T03:23:10;16.20;99.90
27376;DHT22;14844;51.302;6.354;2022-08-19T03:25:41;16.10;99.90
27376;DHT22;14844;51.302;6.354;2022-08-19T03:28:09;16.20;99.90
27376;DHT22;14844;51.302;6.354;2022-08-19T03:30:35;16.20;99.90
27376;DHT22;14844;51.302;6.354;2022-08-19T03:33:00;16.20;99.90
27376;DHT22;14844;51.302;6.354;2022-08-19T03:35:27;16.20;99.90
27376;DHT22;14844;51.302;6.354;2022-08-19T03:37:52;16.20;99.90
27376;DHT22;14844;51.302;6.354;2022-08-19T03:40:18;16.30;99.90
27376;DHT22;14844;51.302;6.354;2022-08-19T03:42:44;16.30;99.90
27376;DHT22;14844;51.302;6.354;2022-08-19T03:45:11;16.40;99.90
27376;DHT22;14844;51.302;6.354;2022-08-19T03:47:36;16.50;99.90
27376;DHT22;14844;51.302;6.354;2022-08-19T03:50:03;16.60;99.90
27376;DHT22;14844;51.302;6.354;2022-08-19T03:52:30;16.70;99.90
27376;DHT22;14844;51.302;6.354;2022-08-19T03:54:55;16.70;99.90
27376;DHT22;14844;51.302;6.354;2022-08-19T03:57:21;16.70;99.90
27376;DHT22;14844;51.302;6.354;2022-08-19T03:59:46;16.70;99.90
27376;DHT22;14844;51.302;6.354;2022-08-19T04:02:13;16.70;99.90
27376;DHT22;14844;51.302;6.354;2022-08-19T04:04:40;16.60;99.90
27376;DHT22;14844;51.302;6.354;2022-08-19T04:07:07;16.60;99.90
27376;DHT22;14844;51.302;6.354;2022-08-19T04:09:34;16.50;99.90
27376;DHT22;14844;51.302;6.354;2022-08-19T04:12:02;16.50;99.90
27376;DHT22;14844;51.302;6.354;2022-08-19T04:14:29;16.30;99.90
27376;DHT22;14844;51.302;6.354;2022-08-19T04:16:55;16.30;99.90
27376;DHT22;14844;51.302;6.354;2022-08-19T04:19:22;16.20;99.90
27376;DHT22;14844;51.302;6.354;2022-08-19T04:21:50;16.10;99.90
27376;DHT22;14844;51.302;6.354;2022-08-19T04:24:17;16.30;99.90
27376;DHT22;14844;51.302;6.354;2022-08-19T04:26:43;16.30;99.90
27376;DHT22;14844;51.302;6.354;2022-08-19T04:29:13;16.40;99.90
27376;DHT22;14844;51.302;6.354;2022-08-19T04:31:40;16.50;99.90
27376;DHT22;14844;51.302;6.354;2022-08-19T04:34:08;16.50;99.90
27376;DHT22;14844;51.302;6.354;2022-08-19T04:36:37;16.60;99.90
27376;DHT22;14844;51.302;6.354;2022-08-19T04:39:11;16.60;99.90
27376;DHT22;14844;51.302;6.354;2022-08-19T04:41:37;16.60;99.90
27376;DHT22;14844;51.302;6.354;2022-08-19T04:44:21;16.60;99.90
27376;DHT22;14844;51.302;6.354;2022-08-19T04:46:48;16.60;99.90
27376;DHT22;14844;51.302;6.354;2022-08-19T04:49:15;16.50;99.90
27376;DHT22;14844;51.302;6.354;2022-08-19T04:51:43;16.60;99.90
27376;DHT22;14844;51.302;6.354;2022-08-19T04:54:09;16.60;99.90
27376;DHT22;14844;51.302;6.354;2022-08-19T04:56:34;16.60;99.90
27376;DHT22;14844;51.302;6.354;2022-08-19T04:59:00;16.70;99.90
27376;DHT22;14844;51.302;6.354;2022-08-19T05:01:31;16.70;99.90
27376;DHT22;14844;51.302;6.354;2022-08-19T05:04:02;16.70;99.90
27376;DHT22;14844;51.302;6.354;2022-08-19T05:06:28;16.80;99.90
27376;DHT22;14844;51.302;6.354;2022-08-19T05:08:54;16.90;99.90
27376;DHT22;14844;51.302;6.354;2022-08-19T05:11:25;16.90;99.90
27376;DHT22;14844;51.302;6.354;2022-08-19T05:13:52;17.00;99.90
27376;DHT22;14844;51.302;6.354;2022-08-19T05:16:19;17.00;99.90
27376;DHT22;14844;51.302;6.354;2022-08-19T05:18:45;17.00;99.90
27376;DHT22;14844;51.302;6.354;2022-08-19T05:21:29;17.10;99.90
27376;DHT22;14844;51.302;6.354;2022-08-19T05:24:14;17.10;99.90
27376;DHT22;14844;51.302;6.354;2022-08-19T05:26:43;17.20;99.90
27376;DHT22;14844;51.302;6.354;2022-08-19T05:29:11;17.20;99.90
27376;DHT22;14844;51.302;6.354;2022-08-19T05:31:37;17.20;99.90
27376;DHT22;14844;51.302;6.354;2022-08-19T05:34:05;17.30;99.90
27376;DHT22;14844;51.302;6.354;2022-08-19T05:36:39;17.30;99.90
27376;DHT22;14844;51.302;6.354;2022-08-19T05:39:05;17.40;99.90
27376;DHT22;14844;51.302;6.354;2022-08-19T05:41:31;17.40;99.90
27376;DHT22;14844;51.302;6.354;2022-08-19T05:43:57;17.50;99.90
27376;DHT22;14844;51.302;6.354;2022-08-19T05:46:24;17.50;99.90
27376;DHT22;14844;51.302;6.354;2022-08-19T05:48:49;17.60;99.90
27376;DHT22;14844;51.302;6.354;2022-08-19T05:51:16;17.60;99.90
27376;DHT22;14844;51.302;6.354;2022-08-19T05:53:42;17.70;99.90
27376;DHT22;14844;51.302;6.354;2022-08-19T05:56:12;17.80;99.90
27376;DHT22;14844;51.302;6.354;2022-08-19T05:58:38;17.70;99.90
27376;DHT22;14844;51.302;6.354;2022-08-19T06:01:15;17.70;99.90
27376;DHT22;14844;51.302;6.354;2022-08-19T06:03:41;17.80;99.90
27376;DHT22;14844;51.302;6.354;2022-08-19T06:06:12;17.70;99.90
27376;DHT22;14844;51.302;6.354;2022-08-19T06:08:39;17.70;99.90
27376;DHT22;14844;51.302;6.354;2022-08-19T06:13:44;17.90;99.90
27376;DHT22;14844;51.302;6.354;2022-08-19T06:16:12;18.00;99.90
27376;DHT22;14844;51.302;6.354;2022-08-19T06:18:38;18.20;99.90
27376;DHT22;14844;51.302;6.354;2022-08-19T06:21:03;18.30;99.90
27376;DHT22;14844;51.302;6.354;2022-08-19T06:23:30;18.50;99.90
27376;DHT22;14844;51.302;6.354;2022-08-19T06:25:56;18.60;99.90
27376;DHT22;14844;51.302;6.354;2022-08-19T06:28:21;18.70;99.90
27376;DHT22;14844;51.302;6.354;2022-08-19T06:30:48;18.90;99.90
27376;DHT22;14844;51.302;6.354;2022-08-19T06:33:13;19.00;99.90
27376;DHT22;14844;51.302;6.354;2022-08-19T06:35:42;19.20;99.90
27376;DHT22;14844;51.302;6.354;2022-08-19T06:38:08;19.20;99.90
27376;DHT22;14844;51.302;6.354;2022-08-19T06:40:35;19.40;99.90
27376;DHT22;14844;51.302;6.354;2022-08-19T06:43:01;19.50;99.90
27376;DHT22;14844;51.302;6.354;2022-08-19T06:45:28;19.50;99.90
27376;DHT22;14844;51.302;6.354;2022-08-19T06:47:53;19.50;99.90
27376;DHT22;14844;51.302;6.354;2022-08-19T06:50:23;19.60;99.90
27376;DHT22;14844;51.302;6.354;2022-08-19T06:52:48;19.90;99.90
27376;DHT22;14844;51.302;6.354;2022-08-19T06:55:14;20.10;99.90
27376;DHT22;14844;51.302;6.354;2022-08-19T06:57:41;20.30;99.90
27376;DHT22;14844;51.302;6.354;2022-08-19T07:00:09;20.50;99.90
27376;DHT22;14844;51.302;6.354;2022-08-19T07:02:42;20.40;99.90
27376;DHT22;14844;51.302;6.354;2022-08-19T07:05:08;20.60;99.90
27376;DHT22;14844;51.302;6.354;2022-08-19T07:07:34;20.50;99.90
27376;DHT22;14844;51.302;6.354;2022-08-19T07:10:00;20.50;99.90
27376;DHT22;14844;51.302;6.354;2022-08-19T07:12:29;20.60;99.90
27376;DHT22;14844;51.302;6.354;2022-08-19T07:14:56;20.40;99.90
27376;DHT22;14844;51.302;6.354;2022-08-19T07:17:22;20.10;99.90
27376;DHT22;14844;51.302;6.354;2022-08-19T07:19:48;19.90;99.90
27376;DHT22;14844;51.302;6.354;2022-08-19T07:22:15;19.90;99.90
27376;DHT22;14844;51.302;6.354;2022-08-19T07:24:41;19.90;99.90
27376;DHT22;14844;51.302;6.354;2022-08-19T07:27:07;20.10;99.90
27376;DHT22;14844;51.302;6.354;2022-08-19T07:29:35;20.20;99.90
27376;DHT22;14844;51.302;6.354;2022-08-19T07:32:02;20.50;99.90
27376;DHT22;14844;51.302;6.354;2022-08-19T07:34:29;21.00;99.90
27376;DHT22;14844;51.302;6.354;2022-08-19T07:36:55;21.20;99.90
27376;DHT22;14844;51.302;6.354;2022-08-19T07:39:27;21.00;99.90
27376;DHT22;14844;51.302;6.354;2022-08-19T07:41:53;21.00;99.90
27376;DHT22;14844;51.302;6.354;2022-08-19T07:44:20;20.90;99.90
27376;DHT22;14844;51.302;6.354;2022-08-19T07:46:50;20.80;99.90
27376;DHT22;14844;51.302;6.354;2022-08-19T07:49:16;20.60;99.90
27376;DHT22;14844;51.302;6.354;2022-08-19T07:52:07;20.60;99.90
27376;DHT22;14844;51.302;6.354;2022-08-19T07:54:35;21.00;99.90
27376;DHT22;14844;51.302;6.354;2022-08-19T07:57:01;21.20;99.90
27376;DHT22;14844;51.302;6.354;2022-08-19T07:59:28;21.10;99.90
27376;DHT22;14844;51.302;6.354;2022-08-19T08:01:54;21.30;99.90
27376;DHT22;14844;51.302;6.354;2022-08-19T08:04:21;21.30;99.90
27376;DHT22;14844;51.302;6.354;2022-08-19T08:07:06;21.30;99.90
27376;DHT22;14844;51.302;6.354;2022-08-19T08:09:51;21.30;99.90
27376;DHT22;14844;51.302;6.354;2022-08-19T08:12:23;21.40;99.90
27376;DHT22;14844;51.302;6.354;2022-08-19T08:14:56;21.50;99.90
27376;DHT22;14844;51.302;6.354;2022-08-19T08:17:25;21.70;99.90
27376;DHT22;14844;51.302;6.354;2022-08-19T08:19:51;21.70;99.90
27376;DHT22;14844;51.302;6.354;2022-08-19T08:22:18;21.60;99.90
27376;DHT22;14844;51.302;6.354;2022-08-19T08:25:13;21.60;99.90
27376;DHT22;14844;51.302;6.354;2022-08-19T08:27:41;21.60;99.90
27376;DHT22;14844;51.302;6.354;2022-08-19T08:30:12;21.70;99.90
27376;DHT22;14844;51.302;6.354;2022-08-19T08:32:38;21.90;99.90
27376;DHT22;14844;51.302;6.354;2022-08-19T08:35:10;21.80;99.90
27376;DHT22;14844;51.302;6.354;2022-08-19T08:37:36;21.80;99.90
27376;DHT22;14844;51.302;6.354;2022-08-19T08:40:52;21.80;99.90
27376;DHT22;14844;51.302;6.354;2022-08-19T08:43:06;21.80;99.90
27376;DHT22;14844;51.302;6.354;2022-08-19T08:45:41;21.80;99.90
27376;DHT22;14844;51.302;6.354;2022-08-19T08:48:21;21.60;99.90
27376;DHT22;14844;51.302;6.354;2022-08-19T08:50:49;21.60;99.90
27376;DHT22;14844;51.302;6.354;2022-08-19T08:53:18;21.90;99.90
27376;DHT22;14844;51.302;6.354;2022-08-19T08:55:45;22.00;99.90
27376;DHT22;14844;51.302;6.354;2022-08-19T08:58:15;22.30;99.90
27376;DHT22;14844;51.302;6.354;2022-08-19T09:00:48;22.40;99.90
27376;DHT22;14844;51.302;6.354;2022-08-19T09:03:19;22.70;99.90
27376;DHT22;14844;51.302;6.354;2022-08-19T09:06:04;22.90;99.90
27376;DHT22;14844;51.302;6.354;2022-08-19T09:09:04;23.00;99.90
27376;DHT22;14844;51.302;6.354;2022-08-19T09:11:38;23.10;99.90
27376;DHT22;14844;51.302;6.354;2022-08-19T09:14:15;23.20;99.90
27376;DHT22;14844;51.302;6.354;2022-08-19T09:16:42;23.30;99.90
27376;DHT22;14844;51.302;6.354;2022-08-19T09:19:08;23.20;99.90
27376;DHT22;14844;51.302;6.354;2022-08-19T09:21:36;23.20;99.90
27376;DHT22;14844;51.302;6.354;2022-08-19T09:24:02;23.20;99.90
27376;DHT22;14844;51.302;6.354;2022-08-19T09:26:30;23.40;99.90
27376;DHT22;14844;51.302;6.354;2022-08-19T09:29:00;23.50;99.90
27376;DHT22;14844;51.302;6.354;2022-08-19T09:31:28;23.80;99.90
27376;DHT22;14844;51.302;6.354;2022-08-19T09:33:55;23.70;99.90
27376;DHT22;14844;51.302;6.354;2022-08-19T09:36:27;23.70;99.90
27376;DHT22;14844;51.302;6.354;2022-08-19T09:38:55;23.90;99.90
27376;DHT22;14844;51.302;6.354;2022-08-19T09:41:23;23.90;99.90
27376;DHT22;14844;51.302;6.354;2022-08-19T09:43:51;24.00;99.90
27376;DHT22;14844;51.302;6.354;2022-08-19T09:46:18;24.20;99.90
27376;DHT22;14844;51.302;6.354;2022-08-19T09:48:46;24.30;99.90
27376;DHT22;14844;51.302;6.354;2022-08-19T09:51:16;24.50;99.90
27376;DHT22;14844;51.302;6.354;2022-08-19T09:53:43;24.60;99.90
27376;DHT22;14844;51.302;6.354;2022-08-19T09:56:10;24.60;99.90
27376;DHT22;14844;51.302;6.354;2022-08-19T09:58:36;24.30;99.90
27376;DHT22;14844;51.302;6.354;2022-08-19T10:01:03;24.10;99.90
27376;DHT22;14844;51.302;6.354;2022-08-19T10:03:31;24.10;99.90
27376;DHT22;14844;51.302;6.354;2022-08-19T10:05:58;24.20;99.90
27376;DHT22;14844;51.302;6.354;2022-08-19T10:08:27;24.40;99.90
27376;DHT22;14844;51.302;6.354;2022-08-19T10:10:54;24.50;99.90
27376;DHT22;14844;51.302;6.354;2022-08-19T10:13:22;24.80;99.90
27376;DHT22;14844;51.302;6.354;2022-08-19T10:15:51;25.10;99.90
27376;DHT22;14844;51.302;6.354;2022-08-19T10:18:19;25.70;99.90
27376;DHT22;14844;51.302;6.354;2022-08-19T10:20:45;26.00;99.90
27376;DHT22;14844;51.302;6.354;2022-08-19T10:23:12;26.30;99.90
27376;DHT22;14844;51.302;6.354;2022-08-19T10:25:38;26.50;99.90
27376;DHT22;14844;51.302;6.354;2022-08-19T10:28:04;26.30;99.90
27376;DHT22;14844;51.302;6.354;2022-08-19T10:30:31;26.30;99.90
27376;DHT22;14844;51.302;6.354;2022-08-19T10:32:57;26.30;99.90
27376;DHT22;14844;51.302;6.354;2022-08-19T10:35:23;25.90;99.90
27376;DHT22;14844;51.302;6.354;2022-08-19T10:37:50;25.80;99.90
27376;DHT22;14844;51.302;6.354;2022-08-19T10:40:15;25.80;99.90
27376;DHT22;14844;51.302;6.354;2022-08-19T10:42:41;26.10;99.90
27376;DHT22;14844;51.302;6.354;2022-08-19T10:45:07;26.00;99.80
27376;DHT22;14844;51.302;6.354;2022-08-19T10:47:35;26.00;99.90
27376;DHT22;14844;51.302;6.354;2022-08-19T10:50:00;25.90;99.90
27376;DHT22;14844;51.302;6.354;2022-08-19T10:52:46;26.10;99.90
27376;DHT22;14844;51.302;6.354;2022-08-19T10:55:12;26.30;99.30
27376;DHT22;14844;51.302;6.354;2022-08-19T10:57:56;26.20;99.10
27376;DHT22;14844;51.302;6.354;2022-08-19T11:00:23;26.30;98.50
27376;DHT22;14844;51.302;6.354;2022-08-19T11:02:49;26.00;98.00
27376;DHT22;14844;51.302;6.354;2022-08-19T11:05:15;25.70;99.30
27376;DHT22;14844;51.302;6.354;2022-08-19T11:07:41;25.50;98.70
27376;DHT22;14844;51.302;6.354;2022-08-19T11:10:09;25.40;97.40
27376;DHT22;14844;51.302;6.354;2022-08-19T11:12:39;25.30;98.20
27376;DHT22;14844;51.302;6.354;2022-08-19T11:15:07;25.20;98.50
27376;DHT22;14844;51.302;6.354;2022-08-19T11:17:37;25.10;99.00
27376;DHT22;14844;51.302;6.354;2022-08-19T11:20:06;25.10;97.10
27376;DHT22;14844;51.302;6.354;2022-08-19T11:22:31;24.90;96.60
27376;DHT22;14844;51.302;6.354;2022-08-19T11:24:57;25.10;97.70
27376;DHT22;14844;51.302;6.354;2022-08-19T11:27:23;24.90;97.30
27376;DHT22;14844;51.302;6.354;2022-08-19T11:29:48;25.00;98.30
27376;DHT22;14844;51.302;6.354;2022-08-19T11:32:14;25.00;96.80
27376;DHT22;14844;51.302;6.354;2022-08-19T11:34:41;25.10;96.30
27376;DHT22;14844;51.302;6.354;2022-08-19T11:37:06;25.10;96.30
27376;DHT22;14844;51.302;6.354;2022-08-19T11:39:35;25.10;94.20
27376;DHT22;14844;51.302;6.354;2022-08-19T11:42:03;25.20;95.40
27376;DHT22;14844;51.302;6.354;2022-08-19T11:44:50;25.40;95.10
27376;DHT22;14844;51.302;6.354;2022-08-19T11:47:16;25.40;95.10
27376;DHT22;14844;51.302;6.354;2022-08-19T11:49:42;25.50;95.00
27376;DHT22;14844;51.302;6.354;2022-08-19T11:52:08;25.70;95.50
27376;DHT22;14844;51.302;6.354;2022-08-19T11:54:34;25.80;96.20
27376;DHT22;14844;51.302;6.354;2022-08-19T11:57:01;26.00;95.80
27376;DHT22;14844;51.302;6.354;2022-08-19T11:59:27;26.10;94.40
27376;DHT22;14844;51.302;6.354;2022-08-19T12:01:53;26.30;93.80
27376;DHT22;14844;51.302;6.354;2022-08-19T12:04:18;26.10;92.90
27376;DHT22;14844;51.302;6.354;2022-08-19T12:06:44;26.00;92.70
27376;DHT22;14844;51.302;6.354;2022-08-19T12:09:10;25.90;91.10
27376;DHT22;14844;51.302;6.354;2022-08-19T12:11:37;26.00;93.00
27376;DHT22;14844;51.302;6.354;2022-08-19T12:14:03;26.10;92.40
27376;DHT22;14844;51.302;6.354;2022-08-19T12:16:30;26.30;92.60
27376;DHT22;14844;51.302;6.354;2022-08-19T12:18:57;26.50;93.20
27376;DHT22;14844;51.302;6.354;2022-08-19T12:21:26;26.50;92.10
27376;DHT22;14844;51.302;6.354;2022-08-19T12:23:57;26.50;92.40
27376;DHT22;14844;51.302;6.354;2022-08-19T12:26:25;26.50;91.60
27376;DHT22;14844;51.302;6.354;2022-08-19T12:28:51;26.70;91.70
27376;DHT22;14844;51.302;6.354;2022-08-19T12:31:17;26.70;90.90
27376;DHT22;14844;51.302;6.354;2022-08-19T12:33:44;26.50;91.80
27376;DHT22;14844;51.302;6.354;2022-08-19T12:36:11;26.70;90.20
27376;DHT22;14844;51.302;6.354;2022-08-19T12:38:38;26.50;89.80
27376;DHT22;14844;51.302;6.354;2022-08-19T12:41:05;26.60;90.40
27376;DHT22;14844;51.302;6.354;2022-08-19T12:43:35;26.60;91.00
27376;DHT22;14844;51.302;6.354;2022-08-19T12:46:02;26.80;90.60
27376;DHT22;14844;51.302;6.354;2022-08-19T12:48:29;26.60;90.60
27376;DHT22;14844;51.302;6.354;2022-08-19T12:50:55;26.60;90.70
27376;DHT22;14844;51.302;6.354;2022-08-19T12:53:20;26.50;90.10
27376;DHT22;14844;51.302;6.354;2022-08-19T12:55:46;26.50;90.80
27376;DHT22;14844;51.302;6.354;2022-08-19T12:58:12;26.30;91.00
27376;DHT22;14844;51.302;6.354;2022-08-19T13:00:38;26.30;91.10
27376;DHT22;14844;51.302;6.354;2022-08-19T13:03:04;26.40;91.40
27376;DHT22;14844;51.302;6.354;2022-08-19T13:05:32;26.60;90.90
27376;DHT22;14844;51.302;6.354;2022-08-19T13:07:59;26.70;90.70
27376;DHT22;14844;51.302;6.354;2022-08-19T13:10:31;26.60;91.10
27376;DHT22;14844;51.302;6.354;2022-08-19T13:13:00;26.40;91.50
27376;DHT22;14844;51.302;6.354;2022-08-19T13:15:28;26.40;91.60
27376;DHT22;14844;51.302;6.354;2022-08-19T13:17:54;26.40;91.50
27376;DHT22;14844;51.302;6.354;2022-08-19T13:20:22;26.30;91.30
27376;DHT22;14844;51.302;6.354;2022-08-19T13:22:48;26.30;91.10
27376;DHT22;14844;51.302;6.354;2022-08-19T13:25:14;26.20;90.80
27376;DHT22;14844;51.302;6.354;2022-08-19T13:27:41;26.40;92.60
27376;DHT22;14844;51.302;6.354;2022-08-19T13:30:08;26.40;93.20
27376;DHT22;14844;51.302;6.354;2022-08-19T13:32:53;26.30;93.20
27376;DHT22;14844;51.302;6.354;2022-08-19T13:35:43;26.20;93.70
27376;DHT22;14844;51.302;6.354;2022-08-19T13:38:10;26.40;93.30
27376;DHT22;14844;51.302;6.354;2022-08-19T13:40:36;26.50;92.00
27376;DHT22;14844;51.302;6.354;2022-08-19T13:43:03;26.30;91.30
27376;DHT22;14844;51.302;6.354;2022-08-19T13:45:31;26.40;91.10
27376;DHT22;14844;51.302;6.354;2022-08-19T13:47:58;26.40;90.20
27376;DHT22;14844;51.302;6.354;2022-08-19T13:50:27;26.40;90.30
27376;DHT22;14844;51.302;6.354;2022-08-19T13:52:54;26.50;89.40
27376;DHT22;14844;51.302;6.354;2022-08-19T13:55:20;26.40;90.70
27376;DHT22;14844;51.302;6.354;2022-08-19T13:57:50;26.30;91.10
27376;DHT22;14844;51.302;6.354;2022-08-19T14:00:17;26.30;91.30
27376;DHT22;14844;51.302;6.354;2022-08-19T14:02:44;26.20;91.40
27376;DHT22;14844;51.302;6.354;2022-08-19T14:05:12;26.30;91.70
27376;DHT22;14844;51.302;6.354;2022-08-19T14:07:38;26.40;92.20
27376;DHT22;14844;51.302;6.354;2022-08-19T14:10:05;26.40;92.50
27376;DHT22;14844;51.302;6.354;2022-08-19T14:12:32;26.30;92.70
27376;DHT22;14844;51.302;6.354;2022-08-19T14:14:58;26.30;92.90
27376;DHT22;14844;51.302;6.354;2022-08-19T14:17:24;26.30;92.60
27376;DHT22;14844;51.302;6.354;2022-08-19T14:19:55;26.20;91.90
27376;DHT22;14844;51.302;6.354;2022-08-19T14:22:21;26.00;92.90
27376;DHT22;14844;51.302;6.354;2022-08-19T14:24:46;26.00;93.40
27376;DHT22;14844;51.302;6.354;2022-08-19T14:27:13;25.90;93.40
27376;DHT22;14844;51.302;6.354;2022-08-19T14:29:38;25.80;94.10
27376;DHT22;14844;51.302;6.354;2022-08-19T14:32:04;25.80;94.50
27376;DHT22;14844;51.302;6.354;2022-08-19T14:34:30;25.80;94.80
27376;DHT22;14844;51.302;6.354;2022-08-19T14:36:57;25.70;95.20
27376;DHT22;14844;51.302;6.354;2022-08-19T14:39:23;25.70;95.20
27376;DHT22;14844;51.302;6.354;2022-08-19T14:41:48;25.70;95.30
27376;DHT22;14844;51.302;6.354;2022-08-19T14:44:14;25.70;95.40
27376;DHT22;14844;51.302;6.354;2022-08-19T14:46:40;25.80;95.20
27376;DHT22;14844;51.302;6.354;2022-08-19T14:49:06;25.90;95.60
27376;DHT22;14844;51.302;6.354;2022-08-19T14:51:32;25.80;96.00
27376;DHT22;14844;51.302;6.354;2022-08-19T14:53:58;25.90;95.90
27376;DHT22;14844;51.302;6.354;2022-08-19T14:56:28;26.30;95.30
27376;DHT22;14844;51.302;6.354;2022-08-19T14:58:54;26.90;94.80
27376;DHT22;14844;51.302;6.354;2022-08-19T15:01:21;27.10;94.40
27376;DHT22;14844;51.302;6.354;2022-08-19T15:03:47;26.80;94.70
27376;DHT22;14844;51.302;6.354;2022-08-19T15:06:13;26.20;95.50
27376;DHT22;14844;51.302;6.354;2022-08-19T15:08:40;25.60;95.70
27376;DHT22;14844;51.302;6.354;2022-08-19T15:11:12;25.20;96.10
27376;DHT22;14844;51.302;6.354;2022-08-19T15:13:39;24.80;96.80
27376;DHT22;14844;51.302;6.354;2022-08-19T15:16:05;24.90;97.40
27376;DHT22;14844;51.302;6.354;2022-08-19T15:18:31;25.40;96.90
27376;DHT22;14844;51.302;6.354;2022-08-19T15:20:58;25.40;96.80
27376;DHT22;14844;51.302;6.354;2022-08-19T15:23:24;25.50;96.70
27376;DHT22;14844;51.302;6.354;2022-08-19T15:25:50;26.10;96.00
27376;DHT22;14844;51.302;6.354;2022-08-19T15:28:24;26.80;95.10
27376;DHT22;14844;51.302;6.354;2022-08-19T15:30:50;26.70;95.00
27376;DHT22;14844;51.302;6.354;2022-08-19T15:33:16;26.30;95.40
27376;DHT22;14844;51.302;6.354;2022-08-19T15:35:46;26.20;95.80
27376;DHT22;14844;51.302;6.354;2022-08-19T15:38:12;26.10;96.10
27376;DHT22;14844;51.302;6.354;2022-08-19T15:40:39;26.50;96.00